Time;durP1;ratioP1;P1;durP2;ratioP2;P2;SDS_P1;SDS_P2;PMS_P1;PMS_P2;Temp;Humidity;BMP_temperature;BMP_pressure;BME280_temperature;BME280_humidity;BME280_pressure;Samples;Min_cycle;Max_cycle;Signal;HPM_P1;HPM_P2
2023/06/05 00:00:36;;;;;;;2.90;2.70;;;16.30;99.90;;;;;;5071673;28;20635;-72
2023/06/05 00:03:03;;;;;;;2.50;2.30;;;16.40;99.90;;;;;;5070118;28;20687;-72
2023/06/05 00:05:31;;;;;;;3.13;2.92;;;16.30;99.90;;;;;;5069400;28;20302;-71
2023/06/05 00:07:58;;;;;;;3.05;2.85;;;16.30;99.90;;;;;;5070466;28;20212;-72
2023/06/05 00:10:25;;;;;;;2.65;2.50;;;16.30;99.90;;;;;;5071734;28;20230;-71
2023/06/05 00:12:52;;;;;;;3.00;2.80;;;16.30;99.90;;;;;;5072416;28;20209;-71
2023/06/05 00:15:21;;;;;;;3.25;2.95;;;16.30;99.90;;;;;;5072657;28;20257;-72
2023/06/05 00:17:48;;;;;;;2.83;2.63;;;16.30;99.90;;;;;;5077448;28;20245;-72
2023/06/05 00:20:15;;;;;;;3.30;3.10;;;16.30;99.90;;;;;;5069712;28;20288;-71
2023/06/05 00:22:44;;;;;;;3.05;2.85;;;16.30;99.90;;;;;;5071851;28;20292;-71
2023/06/05 00:25:11;;;;;;;2.70;2.50;;;16.30;99.90;;;;;;5074096;28;20285;-70
2023/06/05 00:27:40;;;;;;;3.03;2.83;;;16.30;99.90;;;;;;5076615;28;20286;-70
2023/06/05 00:30:09;;;;;;;2.60;2.40;;;16.30;99.90;;;;;;5072365;28;20217;-71
2023/06/05 00:32:38;;;;;;;2.80;2.60;;;16.30;99.90;;;;;;5074334;28;20285;-71
2023/06/05 00:35:06;;;;;;;3.13;2.92;;;16.30;99.90;;;;;;5071806;28;20246;-71
2023/06/05 00:37:34;;;;;;;2.72;2.53;;;16.30;99.90;;;;;;5075558;28;20242;-71
2023/06/05 00:40:01;;;;;;;2.75;2.58;;;16.30;99.90;;;;;;5078358;28;20209;-71
2023/06/05 00:42:28;;;;;;;3.38;2.97;;;16.30;99.90;;;;;;5074032;28;20306;-71
2023/06/05 00:44:55;;;;;;;3.08;2.88;;;16.20;99.90;;;;;;5071347;28;20433;-71
2023/06/05 00:47:23;;;;;;;30.70;3.90;;;16.10;99.90;;;;;;5075965;28;20893;-71
2023/06/05 00:49:51;;;;;;;42.03;5.03;;;16.10;99.90;;;;;;5078373;28;20294;-71
2023/06/05 00:52:19;;;;;;;3.28;3.08;;;16.00;99.90;;;;;;5076559;28;20319;-71
2023/06/05 00:54:46;;;;;;;3.22;3.03;;;16.00;99.90;;;;;;5073977;28;20309;-71
2023/06/05 00:57:13;;;;;;;3.10;2.80;;;15.90;99.90;;;;;;5076453;28;20236;-71
2023/06/05 00:59:44;;;;;;;3.10;2.90;;;15.90;99.90;;;;;;5073016;28;20232;-71
2023/06/05 01:02:12;;;;;;;3.00;2.80;;;16.00;99.90;;;;;;5072254;28;20294;-72
2023/06/05 01:04:40;;;;;;;3.40;3.20;;;16.00;99.90;;;;;;5071228;28;20904;-71
2023/06/05 01:07:08;;;;;;;3.58;3.30;;;16.00;99.90;;;;;;5073301;28;20285;-71
2023/06/05 01:09:35;;;;;;;3.05;2.85;;;16.10;99.90;;;;;;5073698;28;20205;-71
2023/06/05 01:12:10;;;;;;;3.20;3.00;;;16.10;99.90;;;;;;5070791;28;20342;-70
2023/06/05 01:14:45;;;;;;;3.40;3.20;;;16.10;99.90;;;;;;5075011;28;20217;-70
2023/06/05 01:17:13;;;;;;;3.17;2.97;;;16.00;99.90;;;;;;5077899;28;20275;-71
2023/06/05 01:19:40;;;;;;;3.20;3.00;;;16.10;99.90;;;;;;5070075;28;20749;-71
2023/06/05 01:22:09;;;;;;;3.08;2.88;;;16.10;99.90;;;;;;5077271;28;20285;-71
2023/06/05 01:24:40;;;;;;;3.25;3.05;;;16.10;99.90;;;;;;5080376;28;20310;-71
2023/06/05 01:27:15;;;;;;;3.10;2.90;;;16.10;99.90;;;;;;5070640;28;20247;-71
2023/06/05 01:29:53;;;;;;;3.30;3.10;;;16.10;99.90;;;;;;5072370;28;20205;-71
2023/06/05 01:32:26;;;;;;;2.72;2.63;;;16.10;99.90;;;;;;5071438;28;20225;-71
2023/06/05 01:34:54;;;;;;;3.10;2.90;;;16.10;99.90;;;;;;5070015;28;20222;-71
2023/06/05 01:37:24;;;;;;;3.28;2.97;;;16.00;99.90;;;;;;5075251;28;20210;-71
2023/06/05 01:39:56;;;;;;;2.83;2.63;;;16.00;99.90;;;;;;5071877;28;20213;-70
2023/06/05 01:42:25;;;;;;;3.08;2.78;;;16.00;99.90;;;;;;5072216;28;20206;-71
2023/06/05 01:44:53;;;;;;;3.45;3.17;;;16.00;99.90;;;;;;5071213;28;20331;-70
2023/06/05 01:47:21;;;;;;;3.22;3.03;;;16.00;99.90;;;;;;5071138;28;20194;-70
2023/06/05 01:49:49;;;;;;;3.10;2.90;;;15.90;99.90;;;;;;5072441;28;20202;-71
2023/06/05 01:52:16;;;;;;;3.10;2.90;;;15.90;99.90;;;;;;5048004;28;20209;-71
2023/06/05 01:54:46;;;;;;;3.00;2.80;;;15.90;99.90;;;;;;5077656;28;20259;-71
2023/06/05 01:57:14;;;;;;;2.72;2.53;;;15.90;99.90;;;;;;5071319;28;20217;-71
2023/06/05 01:59:43;;;;;;;4.45;2.65;;;15.90;99.90;;;;;;5073945;28;20209;-71
2023/06/05 02:02:11;;;;;;;2.90;2.70;;;15.90;99.90;;;;;;5070266;28;20204;-71
2023/06/05 02:04:38;;;;;;;2.70;2.50;;;15.90;99.90;;;;;;5076693;28;20903;-71
2023/06/05 02:07:07;;;;;;;2.92;2.72;;;15.90;99.90;;;;;;5069073;28;20216;-71
2023/06/05 02:09:34;;;;;;;2.80;2.60;;;15.90;99.90;;;;;;5075232;28;20933;-70
2023/06/05 02:12:05;;;;;;;3.35;3.15;;;15.90;99.90;;;;;;5077074;28;20201;-70
2023/06/05 02:14:37;;;;;;;2.88;2.67;;;15.90;99.90;;;;;;5071005;28;20279;-70
2023/06/05 02:17:06;;;;;;;2.83;2.67;;;15.80;99.90;;;;;;5071854;28;20229;-70
2023/06/05 02:19:33;;;;;;;3.00;2.80;;;15.80;99.90;;;;;;5073366;28;20202;-70
2023/06/05 02:22:00;;;;;;;3.22;3.03;;;15.80;99.90;;;;;;5072218;28;20221;-70
2023/06/05 02:24:27;;;;;;;3.33;3.13;;;15.70;99.90;;;;;;5069668;28;20226;-70
2023/06/05 02:26:54;;;;;;;3.15;2.95;;;15.80;99.90;;;;;;5075544;28;21066;-70
2023/06/05 02:29:21;;;;;;;2.97;2.78;;;15.80;99.90;;;;;;5072235;28;20309;-70
2023/06/05 02:31:50;;;;;;;2.40;2.20;;;15.70;99.90;;;;;;5071570;28;20682;-70
2023/06/05 02:34:17;;;;;;;2.65;2.45;;;15.70;99.90;;;;;;5068570;28;20248;-71
2023/06/05 02:36:45;;;;;;;2.63;2.47;;;15.70;99.90;;;;;;5069474;28;20613;-70
2023/06/05 02:39:12;;;;;;;2.17;1.98;;;15.70;99.90;;;;;;5072104;28;20202;-71
2023/06/05 02:41:39;;;;;;;2.53;2.33;;;15.70;99.90;;;;;;5071597;28;20225;-71
2023/06/05 02:44:07;;;;;;;2.05;1.95;;;15.60;99.90;;;;;;5067582;28;20222;-69
2023/06/05 02:46:34;;;;;;;2.10;2.00;;;15.60;99.90;;;;;;5068085;28;20230;-71
2023/06/05 02:49:02;;;;;;;2.45;2.35;;;15.60;99.90;;;;;;5070527;28;20226;-70
2023/06/05 02:51:29;;;;;;;2.53;2.22;;;15.60;99.90;;;;;;5073117;28;20294;-71
2023/06/05 02:53:57;;;;;;;2.10;2.00;;;15.60;99.90;;;;;;5075110;28;20218;-70
2023/06/05 02:56:26;;;;;;;2.30;2.20;;;15.60;99.90;;;;;;5069753;28;20234;-71
2023/06/05 02:58:53;;;;;;;2.42;2.22;;;15.70;99.90;;;;;;5071423;28;20284;-71
2023/06/05 03:01:22;;;;;;;2.25;2.15;;;15.60;99.90;;;;;;5073937;28;20290;-70
2023/06/05 03:03:52;;;;;;;2.13;2.03;;;15.60;99.90;;;;;;5073055;28;20229;-70
2023/06/05 03:06:20;;;;;;;2.17;2.08;;;15.60;99.90;;;;;;5066899;28;20205;-70
2023/06/05 03:08:47;;;;;;;2.20;2.10;;;15.60;99.90;;;;;;5071113;28;20743;-70
2023/06/05 03:11:14;;;;;;;2.33;2.17;;;15.60;99.90;;;;;;5065692;28;20245;-70
2023/06/05 03:13:41;;;;;;;2.33;2.00;;;15.50;99.90;;;;;;5067869;28;20317;-70
2023/06/05 03:16:08;;;;;;;2.22;2.10;;;15.50;99.90;;;;;;5069349;28;20238;-71
2023/06/05 03:18:35;;;;;;;1.90;1.80;;;15.50;99.90;;;;;;5074244;28;20308;-71
2023/06/05 03:21:03;;;;;;;2.33;2.22;;;15.40;99.90;;;;;;5075331;28;20937;-70
2023/06/05 03:23:31;;;;;;;2.08;1.98;;;15.30;99.90;;;;;;5071397;28;20214;-70
2023/06/05 03:25:59;;;;;;;2.50;2.30;;;15.30;99.90;;;;;;5069193;28;20202;-70
2023/06/05 03:28:26;;;;;;;2.08;1.98;;;15.30;99.90;;;;;;5070775;28;20915;-70
2023/06/05 03:30:53;;;;;;;1.90;1.80;;;15.40;99.90;;;;;;5069769;28;20198;-70
2023/06/05 03:33:20;;;;;;;2.42;2.30;;;15.40;99.90;;;;;;5070379;28;20285;-71
2023/06/05 03:35:48;;;;;;;2.13;2.03;;;15.40;99.90;;;;;;5067302;28;20285;-70
2023/06/05 03:38:16;;;;;;;2.60;2.40;;;15.40;99.90;;;;;;5068245;28;20218;-70
2023/06/05 03:40:44;;;;;;;2.88;2.67;;;15.40;99.90;;;;;;5070537;28;20883;-70
2023/06/05 03:43:11;;;;;;;3.20;3.00;;;15.30;99.90;;;;;;5070335;28;20240;-72
2023/06/05 03:45:39;;;;;;;3.38;3.17;;;15.30;99.90;;;;;;5069465;28;20321;-72
2023/06/05 03:48:08;;;;;;;3.97;3.67;;;15.20;99.90;;;;;;5071961;28;20894;-72
2023/06/05 03:50:37;;;;;;;3.10;2.85;;;15.20;99.90;;;;;;5077355;28;20297;-71
2023/06/05 03:53:05;;;;;;;2.95;2.75;;;15.20;99.90;;;;;;5067924;28;20238;-71
2023/06/05 03:55:40;;;;;;;3.03;2.83;;;15.20;99.90;;;;;;5070796;28;20276;-71
2023/06/05 03:58:13;;;;;;;2.30;2.20;;;15.30;99.90;;;;;;5067684;28;20223;-71
2023/06/05 04:00:40;;;;;;;2.40;2.30;;;15.30;99.90;;;;;;5071315;28;20208;-70
2023/06/05 04:03:10;;;;;;;2.47;2.35;;;15.40;99.90;;;;;;5068861;28;20285;-70
2023/06/05 04:05:37;;;;;;;2.33;2.22;;;15.40;99.90;;;;;;5073948;28;20955;-71
2023/06/05 04:08:05;;;;;;;2.20;2.00;;;15.40;99.90;;;;;;5075981;28;20558;-71
2023/06/05 04:10:32;;;;;;;2.10;2.00;;;15.50;99.90;;;;;;5070251;28;20320;-70
2023/06/05 04:12:59;;;;;;;2.28;2.17;;;15.50;99.90;;;;;;5069695;28;20888;-70
2023/06/05 04:15:29;;;;;;;2.10;2.00;;;15.50;99.90;;;;;;5070918;28;20312;-70
2023/06/05 04:17:57;;;;;;;1.90;1.80;;;15.60;99.90;;;;;;5077528;28;20297;-70
2023/06/05 04:20:24;;;;;;;1.90;1.80;;;15.60;99.90;;;;;;5074903;28;20227;-70
2023/06/05 04:22:51;;;;;;;1.80;1.70;;;15.60;99.90;;;;;;5077195;28;20276;-69
2023/06/05 04:25:18;;;;;;;2.17;2.08;;;15.60;99.90;;;;;;5070146;28;20250;-70
2023/06/05 04:27:50;;;;;;;1.92;1.83;;;15.60;99.90;;;;;;5070053;28;20201;-70
2023/06/05 04:30:17;;;;;;;2.30;2.15;;;15.60;99.90;;;;;;5062874;28;20211;-70
2023/06/05 04:32:52;;;;;;;2.05;1.95;;;15.60;99.90;;;;;;5069418;28;20278;-70
2023/06/05 04:35:20;;;;;;;1.98;1.88;;;15.60;99.90;;;;;;5068195;28;20254;-70
2023/06/05 04:37:47;;;;;;;1.95;1.85;;;15.60;99.90;;;;;;5068370;28;20771;-70
2023/06/05 04:40:15;;;;;;;1.80;1.70;;;15.60;99.90;;;;;;5067662;28;20250;-70
2023/06/05 04:42:42;;;;;;;1.70;1.60;;;15.60;99.90;;;;;;5074969;28;20261;-70
2023/06/05 04:45:10;;;;;;;1.90;1.80;;;15.70;99.90;;;;;;5070871;28;20295;-70
2023/06/05 04:47:37;;;;;;;1.73;1.63;;;15.70;99.90;;;;;;5067982;28;20195;-71
2023/06/05 04:50:08;;;;;;;1.83;1.63;;;15.70;99.90;;;;;;5066118;28;20289;-70
2023/06/05 04:52:39;;;;;;;2.38;2.28;;;15.70;99.90;;;;;;5077816;28;20734;-70
2023/06/05 04:55:07;;;;;;;1.77;1.67;;;15.70;99.90;;;;;;5072444;28;20223;-71
2023/06/05 04:57:35;;;;;;;2.05;1.75;;;15.70;99.90;;;;;;5071209;28;20222;-71
2023/06/05 05:00:04;;;;;;;1.80;1.70;;;15.70;99.90;;;;;;5067938;28;20658;-71
2023/06/05 05:02:31;;;;;;;1.77;1.67;;;15.70;99.90;;;;;;5072561;28;20762;-71
2023/06/05 05:04:58;;;;;;;2.00;1.90;;;15.70;99.90;;;;;;5076766;28;20244;-71
2023/06/05 05:07:28;;;;;;;2.15;2.05;;;15.70;99.90;;;;;;5072422;28;20282;-70
2023/06/05 05:09:55;;;;;;;1.83;1.73;;;15.70;99.90;;;;;;5068844;28;20297;-71
2023/06/05 05:12:22;;;;;;;2.20;2.10;;;15.80;99.90;;;;;;5072401;28;20285;-70
2023/06/05 05:14:49;;;;;;;2.10;2.00;;;15.80;99.90;;;;;;5073763;28;20304;-70
2023/06/05 05:17:19;;;;;;;3.17;2.28;;;15.80;99.90;;;;;;5072895;28;20245;-70
2023/06/05 05:19:46;;;;;;;2.63;2.50;;;15.80;99.90;;;;;;5069127;28;20233;-71
2023/06/05 05:22:13;;;;;;;2.80;2.60;;;15.80;99.90;;;;;;5072808;28;20293;-71
2023/06/05 05:24:42;;;;;;;2.90;2.70;;;15.80;99.90;;;;;;5069121;28;20304;-71
2023/06/05 05:27:09;;;;;;;3.15;2.95;;;15.90;99.90;;;;;;5071667;28;20221;-71
2023/06/05 05:29:36;;;;;;;3.00;2.63;;;15.90;99.90;;;;;;5071995;28;20596;-71
2023/06/05 05:32:03;;;;;;;2.75;2.55;;;15.90;99.90;;;;;;5071980;28;20293;-71
2023/06/05 05:34:30;;;;;;;2.53;2.42;;;15.90;99.90;;;;;;5073250;28;20378;-71
2023/06/05 05:36:58;;;;;;;2.97;2.78;;;15.90;99.90;;;;;;5074228;28;20290;-71
2023/06/05 05:39:25;;;;;;;2.63;2.53;;;15.90;99.90;;;;;;5073952;28;20296;-71
2023/06/05 05:41:53;;;;;;;2.90;2.70;;;16.00;99.90;;;;;;5071220;28;20270;-70
2023/06/05 05:44:20;;;;;;;2.65;2.47;;;16.00;99.90;;;;;;5070473;28;20257;-71
2023/06/05 05:46:48;;;;;;;2.85;2.65;;;16.10;99.90;;;;;;5070155;28;20273;-71
2023/06/05 05:49:15;;;;;;;2.67;2.47;;;16.10;99.90;;;;;;5072422;28;20698;-70
2023/06/05 05:51:42;;;;;;;2.35;2.15;;;16.20;99.90;;;;;;5072863;28;20202;-71
2023/06/05 05:54:09;;;;;;;2.20;2.10;;;16.20;99.90;;;;;;5070920;28;20218;-71
2023/06/05 05:56:36;;;;;;;3.05;2.75;;;16.30;99.90;;;;;;5075949;28;20261;-71
2023/06/05 05:59:05;;;;;;;18.70;3.65;;;16.20;99.90;;;;;;5072392;28;20206;-71
2023/06/05 06:01:33;;;;;;;3.75;3.40;;;16.20;99.90;;;;;;5075617;28;20769;-70
2023/06/05 06:04:00;;;;;;;5.10;4.53;;;16.20;99.90;;;;;;5074878;28;20228;-71
2023/06/05 06:06:27;;;;;;;3.95;3.70;;;16.30;99.90;;;;;;5073578;28;20311;-71
2023/06/05 06:08:54;;;;;;;4.13;3.80;;;16.30;99.90;;;;;;5070534;28;20190;-71
2023/06/05 06:11:21;;;;;;;4.43;4.13;;;16.20;99.90;;;;;;5069105;28;20705;-71
2023/06/05 06:13:49;;;;;;;4.13;3.92;;;16.20;99.90;;;;;;5070791;28;20318;-71
2023/06/05 06:16:17;;;;;;;4.47;4.18;;;16.20;99.90;;;;;;5068260;28;20595;-70
2023/06/05 06:18:45;;;;;;;4.65;4.35;;;16.10;99.90;;;;;;5076654;28;20383;-70
2023/06/05 06:21:12;;;;;;;4.57;4.28;;;16.10;99.90;;;;;;5068673;28;20289;-70
2023/06/05 06:23:39;;;;;;;4.82;4.53;;;16.10;99.90;;;;;;5072022;28;20226;-71
2023/06/05 06:26:07;;;;;;;4.55;4.25;;;16.20;99.90;;;;;;5071034;28;20291;-70
2023/06/05 06:28:35;;;;;;;4.85;4.55;;;16.20;99.90;;;;;;5072504;28;20273;-71
2023/06/05 06:31:02;;;;;;;4.22;3.83;;;16.20;99.90;;;;;;5072434;28;20285;-70
2023/06/05 06:33:30;;;;;;;4.75;4.35;;;16.20;99.90;;;;;;5071752;28;20306;-70
2023/06/05 06:35:58;;;;;;;4.82;4.53;;;16.20;99.90;;;;;;5071972;28;20696;-70
2023/06/05 06:38:30;;;;;;;4.80;4.47;;;16.20;99.90;;;;;;5069766;28;20209;-70
2023/06/05 06:40:57;;;;;;;4.88;4.50;;;16.30;99.90;;;;;;5072651;28;20263;-69
2023/06/05 06:43:24;;;;;;;5.10;4.80;;;16.30;99.90;;;;;;5074549;28;20207;-70
2023/06/05 06:45:53;;;;;;;4.43;4.13;;;16.30;99.90;;;;;;5069425;28;20222;-71
2023/06/05 06:48:21;;;;;;;6.18;5.40;;;16.30;99.90;;;;;;5068340;28;20230;-71
2023/06/05 06:50:49;;;;;;;5.82;5.32;;;16.30;99.90;;;;;;5069188;28;20195;-71
2023/06/05 06:53:16;;;;;;;6.45;6.05;;;16.30;99.90;;;;;;5071527;28;20637;-72
2023/06/05 06:55:43;;;;;;;5.97;5.57;;;16.20;99.90;;;;;;5074172;28;20247;-73
2023/06/05 06:58:11;;;;;;;6.13;5.72;;;16.30;99.90;;;;;;5069100;28;20305;-73
2023/06/05 07:00:38;;;;;;;6.40;5.82;;;16.30;99.90;;;;;;5068846;28;21057;-73
2023/06/05 07:05:44;;;;;;;5.70;5.20;;;16.40;99.90;;;;;;5067778;28;20247;-71
2023/06/05 07:08:12;;;;;;;5.25;4.85;;;16.40;99.90;;;;;;5062409;28;20198;-70
2023/06/05 07:10:40;;;;;;;4.95;4.65;;;16.50;99.90;;;;;;5065315;28;20920;-70
2023/06/05 07:13:07;;;;;;;5.90;5.50;;;16.60;99.90;;;;;;5062264;28;20210;-71
2023/06/05 07:15:34;;;;;;;6.68;6.05;;;16.70;99.90;;;;;;5063435;28;20230;-70
2023/06/05 07:18:01;;;;;;;6.85;6.05;;;16.70;99.90;;;;;;5022602;28;20298;-69
2023/06/05 07:20:28;;;;;;;6.80;6.25;;;16.70;99.90;;;;;;5036466;28;20206;-72
2023/06/05 07:22:56;;;;;;;5.93;5.53;;;16.60;99.90;;;;;;5058796;28;20294;-72
2023/06/05 07:25:25;;;;;;;6.15;5.75;;;16.50;99.90;;;;;;5057414;28;20642;-71
2023/06/05 07:27:53;;;;;;;7.47;6.20;;;16.50;99.90;;;;;;5059400;28;20190;-71
2023/06/05 07:30:20;;;;;;;6.20;5.80;;;16.40;99.90;;;;;;5055555;28;20202;-71
2023/06/05 07:32:47;;;;;;;5.47;5.00;;;16.40;99.90;;;;;;5053845;28;20210;-71
2023/06/05 07:35:15;;;;;;;5.47;5.07;;;16.30;99.90;;;;;;5054198;28;20719;-71
2023/06/05 07:37:42;;;;;;;5.43;5.03;;;16.40;99.90;;;;;;5058869;28;20202;-71
2023/06/05 07:40:10;;;;;;;6.20;5.70;;;16.30;99.90;;;;;;5056601;28;20287;-71
2023/06/05 07:42:38;;;;;;;5.25;4.85;;;16.30;99.90;;;;;;5056322;28;20190;-71
2023/06/05 07:45:06;;;;;;;6.03;5.53;;;16.40;99.90;;;;;;5053196;28;20226;-71
2023/06/05 07:47:33;;;;;;;4.68;4.35;;;16.40;99.90;;;;;;5050219;28;20210;-73
2023/06/05 07:50:03;;;;;;;4.78;4.45;;;16.40;99.90;;;;;;5055780;28;20194;-70
2023/06/05 07:52:31;;;;;;;5.22;4.93;;;16.40;99.90;;;;;;5046616;28;20209;-71
2023/06/05 07:54:59;;;;;;;3.92;3.72;;;16.50;99.90;;;;;;5045937;28;20306;-70
2023/06/05 07:57:27;;;;;;;3.70;3.50;;;16.50;99.90;;;;;;5051720;28;20576;-71
2023/06/05 07:59:56;;;;;;;4.85;4.55;;;16.60;99.90;;;;;;5050854;28;20646;-71
2023/06/05 08:02:24;;;;;;;4.60;4.30;;;16.70;99.90;;;;;;5049190;28;20865;-70
2023/06/05 08:04:51;;;;;;;4.53;4.13;;;16.70;99.90;;;;;;5054340;28;20226;-70
2023/06/05 08:07:18;;;;;;;4.57;4.28;;;16.60;99.90;;;;;;5051692;28;20264;-70
2023/06/05 08:09:45;;;;;;;4.30;4.00;;;16.60;99.90;;;;;;5051170;28;20652;-71
2023/06/05 08:12:13;;;;;;;5.20;4.80;;;16.60;99.90;;;;;;5050441;28;20731;-70
2023/06/05 08:14:40;;;;;;;5.22;4.82;;;16.60;99.90;;;;;;5050768;28;20214;-71
2023/06/05 08:17:08;;;;;;;5.68;5.22;;;16.50;99.90;;;;;;5052426;28;20226;-71
2023/06/05 08:19:35;;;;;;;5.80;5.28;;;16.40;99.90;;;;;;5049023;28;20259;-71
2023/06/05 08:22:04;;;;;;;4.75;4.45;;;16.20;99.90;;;;;;5053532;28;20225;-70
2023/06/05 08:24:32;;;;;;;5.55;5.15;;;16.10;99.90;;;;;;5054201;28;20301;-71
2023/06/05 08:27:00;;;;;;;5.10;4.70;;;16.00;99.90;;;;;;5051231;28;20283;-71
2023/06/05 08:29:27;;;;;;;5.75;5.25;;;16.00;99.90;;;;;;5021901;28;20364;-71
2023/06/05 08:31:55;;;;;;;4.97;4.57;;;16.00;99.90;;;;;;5048966;28;20285;-71
2023/06/05 08:34:25;;;;;;;4.32;3.83;;;16.00;99.90;;;;;;5050007;28;20643;-72
2023/06/05 08:36:52;;;;;;;3.85;3.55;;;16.00;99.90;;;;;;5036015;28;20685;-71
2023/06/05 08:39:20;;;;;;;4.75;4.35;;;16.10;99.90;;;;;;5053740;28;20333;-71
2023/06/05 08:41:52;;;;;;;4.15;3.85;;;16.20;99.90;;;;;;5056795;28;20260;-71
2023/06/05 08:44:19;;;;;;;4.18;3.88;;;16.30;99.90;;;;;;5059533;28;20218;-71
2023/06/05 08:46:47;;;;;;;4.43;4.03;;;16.40;99.90;;;;;;5057759;28;20236;-72
2023/06/05 08:49:18;;;;;;;4.95;4.55;;;16.50;99.90;;;;;;5054983;28;20302;-71
2023/06/05 08:51:51;;;;;;;4.65;4.35;;;16.50;99.90;;;;;;5056084;28;20810;-71
2023/06/05 08:54:19;;;;;;;4.38;3.97;;;16.50;99.90;;;;;;5054953;28;20308;-71
2023/06/05 08:56:49;;;;;;;5.22;4.82;;;16.50;99.90;;;;;;5037221;28;20492;-71
2023/06/05 08:59:18;;;;;;;4.28;3.97;;;16.50;99.90;;;;;;5059712;28;20229;-74
2023/06/05 09:01:48;;;;;;;3.63;3.42;;;16.60;99.90;;;;;;5061189;28;20210;-75
2023/06/05 09:04:15;;;;;;;4.22;3.85;;;16.60;99.90;;;;;;5026296;28;20288;-75
2023/06/05 09:06:48;;;;;;;3.70;3.40;;;16.60;99.90;;;;;;5055535;28;20667;-75
2023/06/05 09:09:16;;;;;;;4.10;3.80;;;16.80;99.90;;;;;;5096951;22;20225;-77
2023/06/05 09:11:44;;;;;;;22.80;5.50;;;16.90;99.90;;;;;;5078465;28;20213;-75
2023/06/05 09:14:12;;;;;;;28.90;6.10;;;17.00;99.90;;;;;;5079477;28;20284;-75
2023/06/05 09:16:42;;;;;;;6.45;5.97;;;17.00;99.90;;;;;;5077866;28;20220;-76
2023/06/05 09:19:09;;;;;;;5.45;4.97;;;17.00;99.90;;;;;;5075067;28;20228;-74
2023/06/05 09:21:36;;;;;;;5.10;4.75;;;17.00;99.90;;;;;;5075820;28;20316;-74
2023/06/05 09:24:15;;;;;;;5.03;4.63;;;16.90;99.90;;;;;;5060613;28;20285;-74
2023/06/05 09:26:51;;;;;;;4.45;4.15;;;16.80;99.90;;;;;;5063618;28;20285;-74
2023/06/05 09:29:23;;;;;;;4.22;3.92;;;16.90;99.90;;;;;;5075519;28;20209;-73
2023/06/05 09:31:50;;;;;;;4.50;4.20;;;16.80;99.90;;;;;;5073789;28;20304;-75
2023/06/05 09:34:28;;;;;;;5.30;4.65;;;17.00;99.90;;;;;;5069764;28;20645;-74
2023/06/05 09:36:57;;;;;;;4.65;4.35;;;17.00;99.90;;;;;;5078056;28;20289;-77
2023/06/05 09:39:26;;;;;;;4.30;4.00;;;17.00;99.90;;;;;;5082349;28;20271;-77
2023/06/05 09:41:54;;;;;;;4.13;3.83;;;17.10;99.90;;;;;;5077478;28;20224;-74
2023/06/05 09:44:22;;;;;;;4.22;3.92;;;17.10;99.90;;;;;;5075005;28;20233;-74
2023/06/05 09:46:57;;;;;;;4.50;4.05;;;17.10;99.90;;;;;;5076789;28;20466;-74
2023/06/05 09:49:27;;;;;;;4.45;4.15;;;17.20;99.90;;;;;;5079355;28;20193;-76
2023/06/05 09:51:57;;;;;;;3.97;3.67;;;17.30;99.90;;;;;;5077628;28;20316;-73
2023/06/05 09:54:27;;;;;;;3.88;3.58;;;17.50;99.90;;;;;;5074653;28;20586;-74
2023/06/05 09:56:59;;;;;;;3.20;3.00;;;17.60;99.90;;;;;;5078994;28;20297;-76
2023/06/05 09:59:29;;;;;;;3.25;2.95;;;17.60;99.90;;;;;;5077327;28;20300;-74
2023/06/05 10:01:57;;;;;;;3.10;2.90;;;17.60;99.90;;;;;;5077130;28;20875;-74
2023/06/05 10:04:27;;;;;;;2.90;2.70;;;17.70;99.90;;;;;;5080446;28;20334;-75
2023/06/05 10:06:58;;;;;;;3.22;3.03;;;17.80;99.90;;;;;;5078266;28;20229;-75
2023/06/05 10:09:27;;;;;;;3.30;3.10;;;17.90;99.90;;;;;;5074996;28;20234;-75
2023/06/05 10:11:55;;;;;;;3.38;3.17;;;18.00;99.90;;;;;;5077479;28;20221;-75
2023/06/05 10:14:22;;;;;;;3.92;3.63;;;18.00;99.90;;;;;;5075034;28;20677;-74
2023/06/05 10:16:51;;;;;;;3.13;2.90;;;18.10;99.90;;;;;;5071000;28;20251;-74
2023/06/05 10:19:19;;;;;;;3.38;3.08;;;18.10;99.90;;;;;;5077131;28;20589;-75
2023/06/05 10:21:48;;;;;;;3.22;3.03;;;18.10;99.90;;;;;;5073865;28;20221;-74
2023/06/05 10:24:19;;;;;;;3.63;3.33;;;18.20;99.90;;;;;;5075727;28;20209;-74
2023/06/05 10:27:32;;;;;;;2.97;2.78;;;18.10;99.90;;;;;;5071103;28;20225;-74
2023/06/05 10:30:27;;;;;;;4.40;3.15;;;18.10;99.90;;;;;;5074518;28;20318;-73
2023/06/05 10:33:09;;;;;;;4.15;3.75;;;18.00;99.90;;;;;;5075905;28;20605;-74
2023/06/05 10:35:47;;;;;;;3.83;3.53;;;18.00;99.90;;;;;;5075941;28;20237;-75
2023/06/05 10:38:18;;;;;;;4.05;3.75;;;17.90;99.90;;;;;;5073098;28;20754;-73
2023/06/05 10:40:47;;;;;;;3.42;3.20;;;17.90;99.90;;;;;;5078239;28;20248;-75
2023/06/05 10:43:28;;;;;;;3.75;3.45;;;17.90;99.90;;;;;;5078625;28;20288;-75
2023/06/05 10:45:56;;;;;;;4.22;3.92;;;17.90;99.90;;;;;;5078825;28;20579;-74
2023/06/05 10:49:12;;;;;;;4.25;3.95;;;17.90;99.90;;;;;;5072486;28;20283;-74
2023/06/05 10:51:42;;;;;;;3.92;3.63;;;18.00;99.90;;;;;;5075703;28;20225;-74
2023/06/05 10:54:10;;;;;;;3.72;3.53;;;18.00;99.90;;;;;;5077918;28;20193;-74
2023/06/05 10:56:58;;;;;;;4.05;3.75;;;18.10;99.90;;;;;;5073232;28;20744;-74
2023/06/05 10:59:29;;;;;;;4.20;3.90;;;18.20;99.90;;;;;;5072365;28;20225;-74
2023/06/05 11:02:24;;;;;;;3.92;3.63;;;18.20;99.90;;;;;;5074241;28;20309;-75
2023/06/05 11:05:08;;;;;;;3.55;3.35;;;18.10;99.90;;;;;;5073198;28;20202;-73
2023/06/05 11:07:35;;;;;;;4.03;3.72;;;18.20;99.90;;;;;;5072134;28;20435;-74
2023/06/05 11:10:09;;;;;;;3.92;3.63;;;18.30;99.90;;;;;;5074920;28;20220;-73
2023/06/05 11:12:59;;;;;;;3.80;3.50;;;18.30;99.90;;;;;;5071727;28;20200;-73
2023/06/05 11:15:43;;;;;;;3.60;3.30;;;18.40;99.90;;;;;;5073714;28;20671;-74
2023/06/05 11:18:33;;;;;;;3.70;3.50;;;18.40;99.90;;;;;;5077346;28;20669;-75
2023/06/05 11:21:02;;;;;;;3.83;3.55;;;18.40;99.90;;;;;;5077847;28;20230;-73
2023/06/05 11:23:29;;;;;;;4.00;3.70;;;18.50;99.90;;;;;;5073232;28;20585;-74
2023/06/05 11:26:38;;;;;;;4.65;4.35;;;18.60;99.90;;;;;;5070984;28;20239;-75
2023/06/05 11:29:15;;;;;;;4.70;4.30;;;18.60;99.90;;;;;;5077344;28;20308;-75
2023/06/05 11:31:45;;;;;;;4.22;3.92;;;18.50;99.90;;;;;;5076643;28;20304;-75
2023/06/05 11:34:14;;;;;;;4.40;4.10;;;18.60;99.90;;;;;;5073224;28;20609;-74
2023/06/05 11:36:41;;;;;;;4.57;4.18;;;18.60;99.90;;;;;;5073943;28;20738;-74
2023/06/05 11:39:10;;;;;;;4.32;4.03;;;18.70;99.90;;;;;;5074258;28;20229;-75
2023/06/05 11:41:44;;;;;;;4.32;4.03;;;18.70;99.90;;;;;;5072790;28;20241;-75
2023/06/05 11:44:11;;;;;;;3.03;2.83;;;18.70;99.90;;;;;;5077242;28;20550;-74
2023/06/05 11:46:39;;;;;;;3.28;3.08;;;18.80;99.90;;;;;;5073998;28;20740;-74
2023/06/05 11:49:07;;;;;;;2.88;2.67;;;18.90;99.90;;;;;;5075645;28;20201;-74
2023/06/05 11:51:35;;;;;;;2.85;2.65;;;18.90;99.90;;;;;;5068501;28;20214;-74
2023/06/05 11:54:02;;;;;;;2.65;2.28;;;19.10;99.90;;;;;;5074342;28;20204;-74
2023/06/05 11:56:30;;;;;;;3.25;3.05;;;19.00;99.90;;;;;;5071138;28;20284;-74
2023/06/05 11:58:57;;;;;;;2.85;2.65;;;19.00;99.90;;;;;;5073916;28;20297;-74
2023/06/05 12:01:25;;;;;;;2.90;2.70;;;19.00;99.90;;;;;;5070776;28;20222;-74
2023/06/05 12:04:05;;;;;;;2.53;2.42;;;19.10;99.90;;;;;;5072126;28;20731;-75
2023/06/05 12:06:34;;;;;;;2.65;2.45;;;19.20;99.90;;;;;;5072742;28;20689;-74
2023/06/05 12:09:11;;;;;;;2.50;2.30;;;19.30;99.90;;;;;;5072818;28;20198;-74
2023/06/05 12:11:38;;;;;;;2.95;2.78;;;19.40;99.90;;;;;;5080518;28;20271;-74
2023/06/05 12:14:06;;;;;;;3.67;3.47;;;19.50;99.90;;;;;;5077582;28;20210;-74
2023/06/05 12:16:34;;;;;;;3.90;3.60;;;19.40;99.90;;;;;;5078888;28;20198;-75
2023/06/05 12:19:02;;;;;;;3.50;3.30;;;19.40;99.90;;;;;;5083320;28;20201;-73
2023/06/05 12:21:29;;;;;;;2.97;2.78;;;19.40;99.90;;;;;;5078906;28;20422;-73
2023/06/05 12:24:04;;;;;;;2.95;2.75;;;19.50;99.90;;;;;;5078048;28;20277;-73
2023/06/05 12:26:48;;;;;;;2.60;2.40;;;19.70;99.90;;;;;;5077524;28;20239;-73
2023/06/05 12:29:16;;;;;;;2.53;2.33;;;19.80;99.90;;;;;;5078040;28;20200;-73
2023/06/05 12:31:43;;;;;;;2.33;2.13;;;19.90;99.90;;;;;;5078219;28;20217;-73
2023/06/05 12:34:10;;;;;;;2.00;1.90;;;19.90;99.90;;;;;;5080342;28;20284;-74
2023/06/05 12:36:42;;;;;;;2.00;1.90;;;20.10;99.90;;;;;;5076920;28;20602;-74
2023/06/05 12:39:12;;;;;;;2.30;2.20;;;20.30;99.90;;;;;;5079433;28;20198;-73
2023/06/05 12:41:39;;;;;;;2.10;2.00;;;20.40;99.90;;;;;;5078413;28;20675;-74
2023/06/05 12:44:07;;;;;;;2.42;2.33;;;20.30;99.90;;;;;;5081473;28;20363;-73
2023/06/05 12:46:35;;;;;;;2.15;2.05;;;20.20;99.90;;;;;;5077538;28;20194;-73
2023/06/05 12:49:03;;;;;;;2.20;2.10;;;20.30;99.90;;;;;;5077301;28;20920;-73
2023/06/05 12:51:30;;;;;;;2.13;2.03;;;20.40;99.90;;;;;;5080413;28;20274;-73
2023/06/05 12:53:58;;;;;;;1.85;1.67;;;20.50;99.90;;;;;;5089532;28;20201;-74
2023/06/05 12:56:28;;;;;;;2.22;2.05;;;20.60;99.90;;;;;;5085605;28;20240;-74
2023/06/05 12:58:56;;;;;;;2.30;2.20;;;20.60;99.90;;;;;;5086033;28;21019;-73